Time;durP1;ratioP1;P1;durP2;ratioP2;P2;SDS_P1;SDS_P2;PMS_P1;PMS_P2;Temp;Humidity;BMP_temperature;BMP_pressure;BME280_temperature;BME280_humidity;BME280_pressure;Samples;Min_cycle;Max_cycle;Signal;HPM_P1;HPM_P2
2022/06/09 00:00:54;;;;;;;11.52;3.00;;;16.30;99.90;;;;;;5042892;28;20029;-72
2022/06/09 00:03:28;;;;;;;19.35;3.85;;;16.20;99.90;;;;;;5043488;28;20025;-72
2022/06/09 00:05:55;;;;;;;13.20;2.90;;;16.20;99.90;;;;;;5047508;28;20032;-73
2022/06/09 00:08:21;;;;;;;11.77;3.15;;;16.30;99.90;;;;;;5043644;28;20024;-72
2022/06/09 00:10:57;;;;;;;16.60;3.80;;;16.30;99.90;;;;;;5044843;28;20138;-73
2022/06/09 00:13:23;;;;;;;10.73;4.25;;;16.20;99.90;;;;;;5041771;28;20419;-72
2022/06/09 00:15:49;;;;;;;15.27;3.58;;;16.30;99.90;;;;;;5041806;28;20083;-72
2022/06/09 00:18:15;;;;;;;15.68;3.28;;;16.20;99.90;;;;;;5043750;28;20013;-72
2022/06/09 00:20:41;;;;;;;12.63;3.85;;;16.20;99.90;;;;;;5040947;28;20029;-72
2022/06/09 00:23:07;;;;;;;13.25;3.72;;;16.20;99.90;;;;;;5045491;28;20036;-72
2022/06/09 00:25:35;;;;;;;14.25;3.97;;;16.20;99.90;;;;;;5042409;28;20240;-69
2022/06/09 00:28:01;;;;;;;14.90;3.38;;;16.20;99.90;;;;;;5042482;28;20021;-69
2022/06/09 00:30:27;;;;;;;9.38;3.38;;;16.20;99.90;;;;;;5039941;28;20105;-72
2022/06/09 00:32:53;;;;;;;18.15;4.32;;;16.20;99.90;;;;;;5041199;28;20104;-73
2022/06/09 00:35:19;;;;;;;17.05;3.90;;;16.10;99.90;;;;;;5043330;28;20025;-72
2022/06/09 00:37:45;;;;;;;8.88;3.28;;;16.10;99.90;;;;;;5042000;28;20025;-75
2022/06/09 00:40:12;;;;;;;15.40;3.85;;;16.10;99.90;;;;;;5042361;28;20032;-74
2022/06/09 00:42:38;;;;;;;18.48;4.03;;;16.10;99.90;;;;;;5045697;28;20053;-74
2022/06/09 00:45:25;;;;;;;11.85;3.60;;;16.20;99.90;;;;;;5043714;28;20071;-74
2022/06/09 00:47:57;;;;;;;14.55;3.90;;;16.10;99.90;;;;;;5042481;28;20033;-74
2022/06/09 00:50:27;;;;;;;13.17;4.20;;;16.20;99.90;;;;;;5040916;28;20119;-74
2022/06/09 00:52:57;;;;;;;20.33;3.78;;;16.10;99.90;;;;;;5041555;28;20386;-75
2022/06/09 00:55:26;;;;;;;17.23;3.90;;;16.20;99.90;;;;;;5041751;28;20014;-75
2022/06/09 00:58:15;;;;;;;19.92;4.13;;;16.20;99.90;;;;;;5041867;28;20024;-74
2022/06/09 01:00:50;;;;;;;13.98;4.40;;;16.10;99.90;;;;;;5041776;28;20024;-74
2022/06/09 01:03:18;;;;;;;17.73;4.43;;;16.10;99.90;;;;;;5040879;28;20655;-74
2022/06/09 01:05:45;;;;;;;18.10;4.82;;;16.10;99.90;;;;;;5041289;28;20466;-74
2022/06/09 01:08:12;;;;;;;21.30;4.70;;;16.10;99.90;;;;;;5042357;28;20091;-74
2022/06/09 01:10:39;;;;;;;21.52;5.05;;;16.10;99.90;;;;;;5042197;28;20017;-74
2022/06/09 01:13:04;;;;;;;19.35;5.40;;;16.00;99.90;;;;;;5040362;28;20045;-74
2022/06/09 01:15:46;;;;;;;19.55;4.93;;;16.00;99.90;;;;;;5041230;28;20076;-74
2022/06/09 01:18:26;;;;;;;19.13;4.97;;;16.00;99.90;;;;;;5041405;28;20020;-74
2022/06/09 01:20:52;;;;;;;25.58;4.70;;;16.00;99.90;;;;;;5041809;28;20505;-73
2022/06/09 01:23:33;;;;;;;23.95;4.85;;;16.00;99.90;;;;;;5043852;28;20053;-74
2022/06/09 01:26:08;;;;;;;19.13;4.70;;;15.90;99.90;;;;;;5040834;28;20432;-74
2022/06/09 01:28:49;;;;;;;21.23;4.88;;;16.00;99.90;;;;;;5041570;28;20043;-74
2022/06/09 01:31:17;;;;;;;18.92;4.53;;;15.90;99.90;;;;;;5043197;28;20026;-74
2022/06/09 01:33:43;;;;;;;19.52;4.40;;;15.90;99.90;;;;;;5041286;28;20505;-74
2022/06/09 01:36:23;;;;;;;24.38;5.55;;;15.90;99.90;;;;;;5043696;28;20022;-74
2022/06/09 01:38:57;;;;;;;17.77;4.88;;;16.00;99.90;;;;;;5046034;28;20056;-74
2022/06/09 01:41:24;;;;;;;18.00;4.78;;;15.90;99.90;;;;;;5052482;28;20035;-74
2022/06/09 01:43:52;;;;;;;15.40;4.25;;;15.90;99.90;;;;;;5051497;28;20084;-74
2022/06/09 01:46:28;;;;;;;27.70;5.28;;;15.90;99.90;;;;;;5036012;28;20101;-74
2022/06/09 01:48:59;;;;;;;25.60;5.60;;;15.90;99.90;;;;;;5035969;28;20036;-74
2022/06/09 01:51:29;;;;;;;22.15;5.05;;;15.80;99.90;;;;;;5061750;28;20483;-73
2022/06/09 01:54:06;;;;;;;24.63;5.30;;;15.80;99.90;;;;;;5064431;28;20547;-74
2022/06/09 01:56:45;;;;;;;21.45;5.75;;;15.80;99.90;;;;;;5054100;28;20036;-75
2022/06/09 01:59:16;;;;;;;24.75;5.50;;;15.70;99.90;;;;;;5055530;28;20025;-73
2022/06/09 02:01:55;;;;;;;24.25;5.28;;;15.70;99.90;;;;;;5055243;28;20025;-74
2022/06/09 02:04:39;;;;;;;16.17;5.43;;;15.70;99.90;;;;;;5055985;28;20017;-74
2022/06/09 02:07:07;;;;;;;24.45;5.30;;;15.70;99.90;;;;;;5048286;28;20064;-74
2022/06/09 02:09:34;;;;;;;21.20;5.32;;;15.70;99.90;;;;;;5035804;28;20120;-74
2022/06/09 02:12:10;;;;;;;18.38;5.30;;;15.70;99.90;;;;;;5035332;28;20017;-74
2022/06/09 02:14:38;;;;;;;21.00;5.43;;;15.70;99.90;;;;;;5042483;28;20033;-74
2022/06/09 02:17:07;;;;;;;17.20;5.13;;;15.70;99.90;;;;;;5054928;28;20025;-74
2022/06/09 02:19:34;;;;;;;22.90;5.47;;;15.70;99.90;;;;;;5038295;28;20373;-74
2022/06/09 02:22:03;;;;;;;32.38;5.72;;;15.70;99.90;;;;;;5041372;28;20037;-74
2022/06/09 02:24:31;;;;;;;25.15;5.47;;;15.70;99.90;;;;;;5055546;28;20017;-74
2022/06/09 02:26:56;;;;;;;24.60;4.93;;;15.70;99.90;;;;;;5053888;28;20120;-74
2022/06/09 02:29:22;;;;;;;19.83;5.28;;;15.70;99.90;;;;;;5054254;28;20028;-74
2022/06/09 02:31:48;;;;;;;21.90;5.03;;;15.70;99.90;;;;;;5052035;28;20029;-74
2022/06/09 02:34:13;;;;;;;20.35;5.35;;;15.60;99.90;;;;;;5067078;28;20036;-74
2022/06/09 02:36:39;;;;;;;19.23;5.25;;;15.70;99.90;;;;;;5075255;28;20434;-75
2022/06/09 02:39:06;;;;;;;21.38;6.03;;;15.60;99.90;;;;;;5074724;28;20028;-74
2022/06/09 02:41:32;;;;;;;31.90;6.53;;;15.70;99.90;;;;;;5073142;28;20048;-73
2022/06/09 02:43:58;;;;;;;21.40;5.25;;;15.70;99.90;;;;;;5064985;28;20041;-74
2022/06/09 02:46:24;;;;;;;23.65;6.05;;;15.70;99.90;;;;;;5054571;28;20017;-74
2022/06/09 02:48:50;;;;;;;29.40;7.15;;;15.70;99.90;;;;;;5053459;28;20029;-74
2022/06/09 02:51:34;;;;;;;26.52;5.88;;;15.60;99.90;;;;;;5054818;28;20047;-74
2022/06/09 02:54:05;;;;;;;22.23;5.82;;;15.60;99.90;;;;;;5054213;28;20036;-74
2022/06/09 02:56:31;;;;;;;24.70;6.30;;;15.60;99.90;;;;;;5055078;28;20389;-73
2022/06/09 02:58:57;;;;;;;23.65;5.65;;;15.60;99.90;;;;;;5050368;28;20028;-74
2022/06/09 03:01:25;;;;;;;25.15;6.10;;;15.60;99.90;;;;;;5074214;28;20177;-73
2022/06/09 03:03:51;;;;;;;29.73;6.13;;;15.60;99.90;;;;;;5073993;28;20032;-74
2022/06/09 03:06:16;;;;;;;26.33;7.05;;;15.60;99.90;;;;;;5068478;28;20021;-74
2022/06/09 03:08:42;;;;;;;31.30;6.70;;;15.60;99.90;;;;;;5034646;28;20099;-74
2022/06/09 03:11:10;;;;;;;26.50;6.05;;;15.60;99.90;;;;;;5048002;28;20088;-74
2022/06/09 03:13:37;;;;;;;30.92;7.05;;;15.50;99.90;;;;;;5054048;28;20474;-73
2022/06/09 03:16:04;;;;;;;20.20;5.90;;;15.60;99.90;;;;;;5054469;28;20029;-73
2022/06/09 03:18:30;;;;;;;35.42;7.63;;;15.60;99.90;;;;;;5054385;28;20131;-74
2022/06/09 03:20:56;;;;;;;29.92;7.15;;;15.60;99.90;;;;;;5053978;28;20036;-73
2022/06/09 03:23:21;;;;;;;26.95;6.53;;;15.60;99.90;;;;;;5074160;28;20029;-73
2022/06/09 03:25:48;;;;;;;22.48;6.53;;;15.60;99.90;;;;;;5072920;28;20020;-73
2022/06/09 03:28:14;;;;;;;22.20;6.82;;;15.50;99.90;;;;;;5074086;28;20032;-74
2022/06/09 03:30:39;;;;;;;28.02;7.30;;;15.60;99.90;;;;;;5074144;28;20025;-73
2022/06/09 03:33:05;;;;;;;24.42;6.20;;;15.50;99.90;;;;;;5074001;28;20161;-74
2022/06/09 03:35:31;;;;;;;23.95;6.90;;;15.50;99.90;;;;;;5068220;28;20021;-73
2022/06/09 03:37:57;;;;;;;26.70;7.97;;;15.50;99.90;;;;;;5038442;28;20029;-73
2022/06/09 03:40:24;;;;;;;22.70;6.20;;;15.50;99.90;;;;;;5033815;28;20024;-73
2022/06/09 03:42:51;;;;;;;32.70;8.52;;;15.50;99.90;;;;;;5033067;28;20167;-72
2022/06/09 03:45:17;;;;;;;23.23;7.95;;;15.50;99.90;;;;;;5033749;28;20030;-73
2022/06/09 03:47:42;;;;;;;34.67;7.25;;;15.50;99.90;;;;;;5034017;28;20029;-73
2022/06/09 03:50:18;;;;;;;31.13;7.30;;;15.50;99.90;;;;;;5035685;28;20080;-73
2022/06/09 03:52:44;;;;;;;28.50;7.53;;;15.50;99.90;;;;;;5053207;28;20503;-73
2022/06/09 03:55:09;;;;;;;32.13;8.55;;;15.60;99.90;;;;;;5053380;28;20101;-73
2022/06/09 03:57:35;;;;;;;31.40;7.50;;;15.60;99.90;;;;;;5040605;28;20428;-73
2022/06/09 04:00:03;;;;;;;32.30;7.47;;;15.60;99.90;;;;;;5032906;28;20563;-73
2022/06/09 04:02:28;;;;;;;31.60;7.80;;;15.60;99.90;;;;;;5033707;28;20017;-72
2022/06/09 04:04:55;;;;;;;29.25;8.15;;;15.50;99.90;;;;;;5033501;28;20374;-73
2022/06/09 04:07:21;;;;;;;26.98;6.90;;;15.50;99.90;;;;;;5038118;28;20027;-73
2022/06/09 04:09:47;;;;;;;24.80;7.30;;;15.50;99.90;;;;;;5052636;28;20037;-73
2022/06/09 04:12:12;;;;;;;27.42;6.82;;;15.50;99.90;;;;;;5049593;28;20033;-73
2022/06/09 04:14:38;;;;;;;28.35;8.20;;;15.50;99.90;;;;;;5052710;28;20021;-72
2022/06/09 04:17:04;;;;;;;25.35;7.57;;;15.40;99.90;;;;;;5052863;28;20021;-72
2022/06/09 04:19:29;;;;;;;33.63;8.07;;;15.50;99.90;;;;;;5049638;28;20032;-72
2022/06/09 04:21:55;;;;;;;22.60;7.63;;;15.50;99.90;;;;;;5052064;28;20514;-72
2022/06/09 04:24:21;;;;;;;31.30;7.75;;;15.50;99.90;;;;;;5049423;28;20432;-72
2022/06/09 04:26:47;;;;;;;28.20;6.57;;;15.40;99.90;;;;;;5053346;28;20024;-72
2022/06/09 04:29:14;;;;;;;35.70;7.82;;;15.40;99.90;;;;;;5053046;28;20041;-72
2022/06/09 04:31:41;;;;;;;29.48;7.45;;;15.40;99.90;;;;;;5052712;28;20020;-72
2022/06/09 04:34:08;;;;;;;15.65;5.50;;;15.40;99.90;;;;;;5053169;28;20385;-72
2022/06/09 04:36:34;;;;;;;31.60;8.20;;;15.50;99.90;;;;;;5051706;28;20028;-72
2022/06/09 04:39:02;;;;;;;23.90;8.45;;;15.50;99.90;;;;;;5032797;28;20475;-72
2022/06/09 04:41:28;;;;;;;24.00;6.75;;;15.50;99.90;;;;;;5033435;28;20018;-72
2022/06/09 04:43:53;;;;;;;23.48;7.18;;;15.50;99.90;;;;;;5037353;28;20124;-72
2022/06/09 04:46:22;;;;;;;28.80;6.80;;;15.50;99.90;;;;;;5044586;28;20028;-72
2022/06/09 04:48:48;;;;;;;23.08;6.70;;;15.50;99.90;;;;;;5038745;28;20114;-72
2022/06/09 04:51:18;;;;;;;31.75;7.60;;;15.50;99.90;;;;;;5052084;28;20470;-72
2022/06/09 04:53:45;;;;;;;30.25;7.15;;;15.50;99.90;;;;;;5051841;28;20396;-72
2022/06/09 04:56:11;;;;;;;33.17;8.77;;;15.50;99.90;;;;;;5050027;28;20028;-72
2022/06/09 04:58:41;;;;;;;33.42;9.25;;;15.60;99.90;;;;;;5070430;28;20024;-71
2022/06/09 05:01:12;;;;;;;29.48;8.48;;;15.60;99.90;;;;;;5067109;28;20028;-71
2022/06/09 05:03:38;;;;;;;29.97;7.93;;;15.60;99.90;;;;;;5052641;28;20028;-71
2022/06/09 05:06:04;;;;;;;30.45;9.45;;;15.60;99.90;;;;;;5050407;28;20025;-71
2022/06/09 05:08:30;;;;;;;32.85;9.18;;;15.60;99.90;;;;;;5051825;28;20474;-71
2022/06/09 05:10:56;;;;;;;26.40;9.52;;;15.60;99.90;;;;;;5052300;28;20031;-71
2022/06/09 05:13:21;;;;;;;32.67;9.60;;;15.60;99.90;;;;;;5074778;28;20396;-72
2022/06/09 05:15:53;;;;;;;33.17;9.80;;;15.60;99.90;;;;;;5075770;28;20028;-71
2022/06/09 05:18:21;;;;;;;34.28;10.27;;;15.60;99.90;;;;;;5076652;28;20036;-71
2022/06/09 05:20:49;;;;;;;30.17;9.63;;;15.70;99.90;;;;;;5060789;28;20024;-70
2022/06/09 05:23:14;;;;;;;28.08;8.80;;;15.70;99.90;;;;;;5036244;28;20025;-71
2022/06/09 05:25:40;;;;;;;28.58;8.60;;;15.80;99.90;;;;;;5061585;28;20511;-71
2022/06/09 05:28:06;;;;;;;29.27;10.27;;;15.90;99.90;;;;;;5075880;28;20078;-71
2022/06/09 05:30:32;;;;;;;22.70;9.40;;;15.90;99.90;;;;;;5076450;28;20422;-71
2022/06/09 05:32:57;;;;;;;29.90;10.70;;;15.90;99.90;;;;;;5076280;28;20048;-71
2022/06/09 05:35:24;;;;;;;27.30;10.40;;;15.90;99.90;;;;;;5063419;28;20431;-70
2022/06/09 05:46:05;;;;;;;34.13;10.68;;;16.10;99.90;;;;;;5056154;28;20044;-70
2022/06/09 05:48:31;;;;;;;34.67;10.38;;;16.20;99.90;;;;;;5056039;28;20027;-71
2022/06/09 05:50:58;;;;;;;31.38;9.63;;;16.20;99.90;;;;;;5042930;28;20067;-71
2022/06/09 05:53:23;;;;;;;29.85;9.13;;;16.30;99.90;;;;;;5051819;28;20510;-71
2022/06/09 05:55:49;;;;;;;27.85;8.27;;;16.20;99.90;;;;;;5067609;28;20024;-71
2022/06/09 05:58:15;;;;;;;40.25;9.52;;;16.20;99.90;;;;;;5051478;28;20032;-71
2022/06/09 06:00:47;;;;;;;36.75;9.45;;;16.20;99.90;;;;;;5034716;28;20053;-71
2022/06/09 06:03:14;;;;;;;27.38;8.70;;;16.20;99.90;;;;;;5035334;28;20029;-71
2022/06/09 06:08:25;;;;;;;27.23;8.90;;;16.40;99.90;;;;;;5051308;28;20158;-72
2022/06/09 06:10:52;;;;;;;32.03;10.00;;;16.30;99.90;;;;;;5055504;28;20032;-71
2022/06/09 06:13:18;;;;;;;21.52;8.18;;;16.30;99.90;;;;;;5055268;28;20390;-71
2022/06/09 06:15:44;;;;;;;29.08;9.20;;;16.40;99.90;;;;;;5055199;28;20026;-71
2022/06/09 06:18:10;;;;;;;35.38;10.52;;;16.40;99.90;;;;;;5064072;28;20033;-71
2022/06/09 06:20:35;;;;;;;29.60;8.95;;;16.60;99.90;;;;;;5075383;28;20024;-71
2022/06/09 06:23:01;;;;;;;31.92;9.75;;;16.70;99.90;;;;;;5074724;28;20027;-72
2022/06/09 06:25:27;;;;;;;22.60;9.63;;;16.80;99.90;;;;;;5057084;28;20053;-71
2022/06/09 06:27:53;;;;;;;25.45;10.88;;;16.80;99.90;;;;;;5055305;28;20094;-71
2022/06/09 06:30:20;;;;;;;30.63;10.50;;;16.80;99.90;;;;;;5052371;28;20029;-71
2022/06/09 06:32:47;;;;;;;26.25;10.38;;;16.80;99.90;;;;;;5038061;28;20026;-72
2022/06/09 06:35:14;;;;;;;28.08;10.07;;;16.90;99.90;;;;;;5053974;28;20025;-71
2022/06/09 06:37:40;;;;;;;28.90;10.55;;;16.90;99.90;;;;;;5058682;28;20025;-71
2022/06/09 06:40:09;;;;;;;26.90;10.32;;;16.90;99.90;;;;;;5051769;28;20017;-72
2022/06/09 06:42:34;;;;;;;24.35;9.05;;;17.00;99.90;;;;;;5054726;28;20037;-72
2022/06/09 06:45:00;;;;;;;27.23;8.95;;;17.00;99.90;;;;;;5053458;28;20023;-71
2022/06/09 06:47:25;;;;;;;28.45;9.68;;;17.00;99.90;;;;;;5043256;28;20388;-71
2022/06/09 06:49:51;;;;;;;24.80;9.32;;;17.00;99.90;;;;;;5046030;28;20510;-71
2022/06/09 06:52:17;;;;;;;39.33;11.10;;;17.00;99.90;;;;;;5045608;28;20147;-71
2022/06/09 06:54:42;;;;;;;25.10;10.35;;;17.00;99.90;;;;;;5042268;28;20049;-72
2022/06/09 06:57:09;;;;;;;31.67;12.15;;;17.00;99.90;;;;;;5043821;28;20017;-72
2022/06/09 06:59:35;;;;;;;28.25;10.68;;;17.10;99.90;;;;;;5042615;28;20079;-72
2022/06/09 07:02:01;;;;;;;26.50;9.90;;;17.30;99.90;;;;;;5049879;28;20022;-72
2022/06/09 07:04:27;;;;;;;23.25;10.40;;;17.40;99.90;;;;;;5043680;28;20027;-73
2022/06/09 07:06:52;;;;;;;27.38;11.30;;;17.40;99.90;;;;;;5044055;28;20074;-72
2022/06/09 07:09:19;;;;;;;24.13;12.02;;;17.40;99.90;;;;;;5051680;28;20025;-72
2022/06/09 07:11:45;;;;;;;27.98;11.50;;;17.40;99.90;;;;;;5051876;28;20040;-72
2022/06/09 07:14:11;;;;;;;27.83;11.75;;;17.40;99.90;;;;;;5052268;28;20028;-72
2022/06/09 07:16:37;;;;;;;31.38;11.77;;;17.40;99.90;;;;;;5043356;28;20028;-72
2022/06/09 07:19:04;;;;;;;24.25;12.85;;;17.60;99.90;;;;;;5042934;28;20477;-73
2022/06/09 07:21:30;;;;;;;22.42;12.23;;;17.60;99.90;;;;;;5042140;28;20029;-72
2022/06/09 07:23:56;;;;;;;29.73;11.68;;;17.70;99.90;;;;;;5044623;28;20052;-73
2022/06/09 07:26:22;;;;;;;29.20;12.35;;;17.80;99.90;;;;;;5043697;28;20049;-73
2022/06/09 07:28:48;;;;;;;20.88;11.13;;;18.00;99.90;;;;;;5047384;28;20040;-73
2022/06/09 07:31:14;;;;;;;30.60;12.15;;;18.00;99.90;;;;;;5039380;28;20073;-74
2022/06/09 07:33:41;;;;;;;30.65;12.60;;;18.10;99.90;;;;;;5032832;28;20064;-73
2022/06/09 07:36:11;;;;;;;17.48;9.32;;;18.10;99.90;;;;;;5032868;28;20466;-73
2022/06/09 07:38:37;;;;;;;19.88;8.80;;;17.90;99.90;;;;;;5040981;28;20053;-73
2022/06/09 07:41:04;;;;;;;15.90;9.45;;;17.80;99.90;;;;;;5046880;28;20036;-73
2022/06/09 07:43:30;;;;;;;14.75;8.57;;;17.80;99.90;;;;;;5047277;28;20067;-73
2022/06/09 07:45:56;;;;;;;17.88;9.18;;;18.00;99.90;;;;;;5053991;28;20401;-74
2022/06/09 07:48:22;;;;;;;16.83;8.05;;;18.30;99.90;;;;;;5053091;28;20032;-73
2022/06/09 07:50:49;;;;;;;15.27;8.88;;;18.40;99.90;;;;;;5053658;28;20095;-73
2022/06/09 07:53:16;;;;;;;17.55;9.65;;;18.50;99.90;;;;;;5053725;28;20028;-74
2022/06/09 07:55:42;;;;;;;17.75;9.35;;;18.80;99.90;;;;;;5053230;28;20029;-74
2022/06/09 07:58:08;;;;;;;14.02;8.88;;;19.10;99.90;;;;;;5050795;28;20083;-74
2022/06/09 08:00:34;;;;;;;15.55;8.85;;;19.20;99.90;;;;;;5047830;28;20052;-74
2022/06/09 08:03:03;;;;;;;14.23;10.05;;;19.10;99.90;;;;;;5045393;28;20056;-75
2022/06/09 08:05:30;;;;;;;13.43;9.15;;;19.10;99.90;;;;;;5052070;28;20021;-70
2022/06/09 08:07:56;;;;;;;14.05;9.23;;;19.20;99.90;;;;;;5051417;28;20021;-77
2022/06/09 08:10:24;;;;;;;14.77;8.90;;;19.10;99.90;;;;;;5052553;28;20033;-74
2022/06/09 08:12:53;;;;;;;13.65;8.70;;;19.10;99.90;;;;;;5053399;28;20036;-75
2022/06/09 08:15:21;;;;;;;10.90;7.25;;;19.10;99.90;;;;;;5052885;28;20033;-74
2022/06/09 08:17:47;;;;;;;11.35;5.80;;;19.30;99.90;;;;;;5044169;28;20021;-74
2022/06/09 08:20:13;;;;;;;12.48;5.88;;;19.60;99.90;;;;;;5045538;28;20078;-74
2022/06/09 08:22:43;;;;;;;14.13;6.38;;;19.90;99.90;;;;;;5043935;28;20036;-75
2022/06/09 08:25:11;;;;;;;13.68;7.25;;;20.20;99.90;;;;;;5041808;28;20017;-75
2022/06/09 08:27:37;;;;;;;13.90;8.10;;;20.20;99.90;;;;;;5042070;28;20104;-75
2022/06/09 08:30:05;;;;;;;16.52;8.38;;;20.20;99.90;;;;;;5043278;28;20108;-74
2022/06/09 08:32:32;;;;;;;13.57;8.93;;;20.20;99.90;;;;;;5042756;28;20017;-74
2022/06/09 08:34:57;;;;;;;15.77;7.95;;;20.20;99.90;;;;;;5049617;28;20104;-75
2022/06/09 08:37:23;;;;;;;13.10;7.25;;;20.00;99.90;;;;;;5049000;28;20474;-74
2022/06/09 08:39:49;;;;;;;17.63;8.05;;;19.90;99.90;;;;;;5071222;28;20103;-75
2022/06/09 08:42:30;;;;;;;11.60;7.13;;;20.10;99.90;;;;;;5065686;28;20033;-74
2022/06/09 08:45:03;;;;;;;9.88;6.65;;;20.40;99.90;;;;;;5053744;28;20527;-74
2022/06/09 08:47:48;;;;;;;10.70;5.00;;;20.60;99.90;;;;;;5052708;28;20029;-74
2022/06/09 08:50:24;;;;;;;6.55;3.65;;;20.60;99.90;;;;;;5051318;28;20045;-74
2022/06/09 08:53:11;;;;;;;9.00;4.38;;;20.70;99.90;;;;;;5051309;28;20028;-72
2022/06/09 08:55:47;;;;;;;5.72;4.28;;;20.90;99.90;;;;;;5039200;28;20082;-74
2022/06/09 08:58:30;;;;;;;8.07;3.97;;;21.20;99.90;;;;;;5052838;28;20020;-75
2022/06/09 09:01:11;;;;;;;15.55;4.55;;;21.20;99.90;;;;;;5053418;28;20032;-75
2022/06/09 09:03:45;;;;;;;9.45;3.60;;;21.10;99.90;;;;;;5041809;28;20024;-74
2022/06/09 09:06:23;;;;;;;7.40;4.30;;;21.30;99.90;;;;;;5041006;28;20029;-74
2022/06/09 09:08:50;;;;;;;9.77;4.18;;;21.70;99.90;;;;;;5043676;28;20098;-75
2022/06/09 09:11:38;;;;;;;10.35;4.50;;;21.90;99.90;;;;;;5042836;28;20071;-75
2022/06/09 09:14:23;;;;;;;7.28;5.20;;;21.80;99.90;;;;;;5042213;28;20025;-75
2022/06/09 09:17:04;;;;;;;8.75;6.30;;;21.60;99.90;;;;;;5042522;28;20037;-75
2022/06/09 09:19:38;;;;;;;9.02;5.18;;;21.40;99.90;;;;;;5042866;28;20163;-75
2022/06/09 09:22:19;;;;;;;12.25;6.63;;;21.10;99.90;;;;;;5048374;28;20025;-74
2022/06/09 09:25:15;;;;;;;10.43;6.97;;;20.70;99.90;;;;;;5056120;28;20041;-74
2022/06/09 09:27:44;;;;;;;11.30;7.32;;;20.70;99.90;;;;;;5048266;28;20388;-75
2022/06/09 09:30:18;;;;;;;12.65;7.70;;;20.70;99.90;;;;;;5040804;28;20041;-74
2022/06/09 09:32:48;;;;;;;13.25;8.95;;;20.80;99.90;;;;;;5037845;28;20083;-75
2022/06/09 09:35:44;;;;;;;10.80;7.90;;;21.00;99.90;;;;;;5032801;28;20033;-75
2022/06/09 09:38:15;;;;;;;15.57;9.18;;;21.10;99.90;;;;;;5032334;28;20036;-75
2022/06/09 09:40:43;;;;;;;12.25;8.63;;;21.30;99.90;;;;;;5037361;28;20033;-75
2022/06/09 09:43:20;;;;;;;15.65;11.65;;;21.70;99.90;;;;;;5034851;28;20037;-74
2022/06/09 09:45:49;;;;;;;11.13;9.32;;;21.80;99.90;;;;;;5072359;28;20039;-75
2022/06/09 09:48:17;;;;;;;14.30;8.95;;;22.00;99.90;;;;;;5052415;28;20033;-74
2022/06/09 09:50:51;;;;;;;11.32;9.10;;;22.30;99.90;;;;;;5052178;28;20021;-75
2022/06/09 09:53:34;;;;;;;11.82;9.88;;;22.20;99.90;;;;;;5052315;28;20017;-75
2022/06/09 09:56:02;;;;;;;13.60;11.00;;;22.30;99.90;;;;;;5052337;28;20079;-75
2022/06/09 09:58:34;;;;;;;16.10;10.68;;;22.50;99.90;;;;;;5049736;28;20048;-74
2022/06/09 10:01:17;;;;;;;12.75;9.02;;;22.50;99.90;;;;;;5051488;28;20382;-75
2022/06/09 10:09:59;;;;;;;13.15;11.75;;;21.80;99.90;;;;;;5056222;28;20095;-75
2022/06/09 10:12:31;;;;;;;17.13;13.18;;;21.60;99.90;;;;;;5044309;28;20027;-75
2022/06/09 10:15:09;;;;;;;16.75;13.07;;;21.50;99.90;;;;;;5055039;28;20021;-74
2022/06/09 10:17:38;;;;;;;16.38;11.80;;;21.20;99.90;;;;;;5052051;28;20063;-73
2022/06/09 10:20:41;;;;;;;19.33;10.00;;;21.00;99.90;;;;;;5043158;28;20386;-80
2022/06/09 10:23:07;;;;;;;18.95;6.00;;;20.50;99.90;;;;;;5055060;28;20025;-82
2022/06/09 10:25:50;;;;;;;15.00;5.57;;;20.20;99.90;;;;;;5052465;28;20462;-77
2022/06/09 10:28:34;;;;;;;11.38;4.82;;;19.90;99.90;;;;;;5043148;28;20040;-73
2022/06/09 10:31:02;;;;;;;7.38;5.93;;;19.90;99.90;;;;;;5052068;28;20025;-76
2022/06/09 10:33:33;;;;;;;12.30;10.45;;;19.60;99.90;;;;;;5054520;28;20057;-76
2022/06/09 10:36:07;;;;;;;12.18;10.27;;;19.60;99.90;;;;;;5054535;28;20134;-75
2022/06/09 10:38:43;;;;;;;18.83;13.27;;;19.50;99.90;;;;;;5051628;28;20117;-75
2022/06/09 10:41:18;;;;;;;15.57;13.88;;;19.50;99.90;;;;;;5046321;28;20108;-75
2022/06/09 10:43:49;;;;;;;15.80;14.18;;;19.50;99.90;;;;;;5054833;28;20037;-76
2022/06/09 10:46:40;;;;;;;15.02;13.38;;;19.30;99.90;;;;;;5053865;28;20477;-77
2022/06/09 10:55:24;;;;;;;15.77;12.43;;;19.40;99.90;;;;;;5053580;28;20039;-75
2022/06/09 10:58:02;;;;;;;14.13;12.43;;;19.30;99.90;;;;;;5037432;28;20083;-76
2022/06/09 11:00:34;;;;;;;14.63;11.68;;;19.40;99.90;;;;;;5051310;28;20032;-77
2022/06/09 11:03:02;;;;;;;;;;;19.30;99.90;;;;;;5050233;28;20029;-77
2022/06/09 11:05:50;;;;;;;13.35;11.95;;;19.30;99.90;;;;;;5062822;28;19909;-76
2022/06/09 11:08:56;;;;;;;16.60;12.60;;;19.40;99.90;;;;;;5054274;28;20025;-75
2022/06/09 11:11:51;;;;;;;18.45;13.80;;;19.50;99.90;;;;;;5049475;28;20468;-74
2022/06/09 11:14:41;;;;;;;15.32;13.15;;;19.50;99.90;;;;;;5050669;28;20378;-75
2022/06/09 11:17:22;;;;;;;14.80;13.10;;;19.50;99.90;;;;;;5036875;28;20529;-75
2022/06/09 11:20:15;;;;;;;14.88;12.93;;;19.70;99.90;;;;;;5039149;28;20021;-74
2022/06/09 11:23:01;;;;;;;19.10;13.73;;;19.70;99.90;;;;;;5043920;28;20104;-74
2022/06/09 11:26:01;;;;;;;17.52;13.93;;;19.90;99.90;;;;;;5073643;28;20544;-74
2022/06/09 11:29:04;;;;;;;15.52;13.25;;;19.90;99.90;;;;;;5052978;28;20029;-74
2022/06/09 11:31:43;;;;;;;16.50;13.73;;;19.90;99.90;;;;;;5049034;28;20030;-74
2022/06/09 11:34:45;;;;;;;15.85;14.18;;;19.90;99.90;;;;;;5032988;28;20068;-74
2022/06/09 11:37:34;;;;;;;6.50;4.85;;;20.00;99.90;;;;;;5037070;28;20030;-75
2022/06/09 11:40:36;;;;;;;4.47;3.60;;;19.80;99.90;;;;;;5032389;28;20458;-74
2022/06/09 11:43:18;;;;;;;6.60;4.18;;;19.70;99.90;;;;;;5063873;28;20032;-74
2022/06/09 11:45:50;;;;;;;7.82;4.20;;;19.60;99.90;;;;;;5064428;28;20041;-73
2022/06/09 11:48:44;;;;;;;5.57;3.67;;;19.60;99.90;;;;;;5053942;28;20017;-74
2022/06/09 11:51:10;;;;;;;6.70;3.10;;;19.50;99.90;;;;;;5053404;28;20094;-74
2022/06/09 11:53:44;;;;;;;4.50;2.40;;;19.40;99.90;;;;;;5053508;28;20697;-74
2022/06/09 11:56:34;;;;;;;2.97;2.15;;;19.30;99.90;;;;;;5071930;28;20059;-74
2022/06/09 11:59:12;;;;;;;3.47;3.15;;;19.30;99.90;;;;;;5049400;28;20029;-74
2022/06/09 12:01:37;;;;;;;7.15;3.15;;;19.30;99.90;;;;;;5052926;28;20028;-75
2022/06/09 12:04:43;;;;;;;5.32;3.30;;;19.30;99.90;;;;;;5052381;28;20381;-75
2022/06/09 12:07:36;;;;;;;4.30;3.60;;;19.30;99.90;;;;;;5050022;28;20079;-75
2022/06/09 12:10:24;;;;;;;;;;;19.40;99.90;;;;;;5053608;28;20072;-76
2022/06/09 12:13:14;;;;;;;5.45;4.22;;;19.50;99.90;;;;;;5065052;28;20357;-73
2022/06/09 12:16:05;;;;;;;7.45;4.47;;;19.60;99.90;;;;;;5073271;28;20123;-75
2022/06/09 12:18:45;;;;;;;5.75;5.10;;;19.70;99.90;;;;;;5066506;28;20017;-75
2022/06/09 12:21:26;;;;;;;11.65;5.43;;;19.80;99.90;;;;;;5052377;28;20057;-78
2022/06/09 12:24:04;;;;;;;8.27;5.10;;;19.80;99.90;;;;;;5052984;28;20021;-73
2022/06/09 12:26:44;;;;;;;8.15;5.68;;;19.60;99.90;;;;;;5053173;28;20029;-74
2022/06/09 12:29:18;;;;;;;8.57;5.35;;;19.50;99.90;;;;;;5052938;28;20094;-75
2022/06/09 12:32:09;;;;;;;9.25;6.55;;;19.50;99.90;;;;;;5046956;28;20120;-74
2022/06/09 12:34:57;;;;;;;10.75;6.43;;;19.50;99.90;;;;;;5033125;28;20032;-74
2022/06/09 12:37:31;;;;;;;10.60;5.88;;;19.80;99.90;;;;;;5032956;28;20029;-74
2022/06/09 12:40:13;;;;;;;5.75;4.85;;;19.90;99.90;;;;;;5032990;28;20026;-74
2022/06/09 12:42:54;;;;;;;4.45;3.65;;;20.00;99.90;;;;;;5044965;28;20021;-74
2022/06/09 12:45:27;;;;;;;5.13;3.28;;;20.10;99.90;;;;;;5055448;28;20055;-74
2022/06/09 12:47:59;;;;;;;5.85;3.58;;;20.10;99.90;;;;;;5059590;28;20029;-74
2022/06/09 12:50:46;;;;;;;6.47;4.88;;;20.20;99.90;;;;;;5038109;28;20168;-73
2022/06/09 12:53:36;;;;;;;7.13;4.63;;;20.10;99.90;;;;;;5051925;28;20025;-74
2022/06/09 12:56:23;;;;;;;6.57;4.00;;;20.10;99.90;;;;;;5050082;28;20067;-73
2022/06/09 12:58:50;;;;;;;6.63;3.63;;;20.20;99.90;;;;;;5053270;28;20531;-74
2022/06/09 13:01:20;;;;;;;5.82;3.58;;;20.20;99.90;;;;;;5045821;28;20032;-73
2022/06/09 13:03:56;;;;;;;5.30;3.15;;;20.30;99.90;;;;;;5055253;28;20032;-74
2022/06/09 13:06:32;;;;;;;5.07;3.20;;;20.30;99.90;;;;;;5054599;28;20033;-74
2022/06/09 13:09:13;;;;;;;6.80;5.05;;;20.30;99.90;;;;;;5055243;28;20044;-73
2022/06/09 13:14:32;;;;;;;7.32;3.83;;;20.10;99.90;;;;;;5042960;28;20056;-74
2022/06/09 13:17:07;;;;;;;10.68;4.03;;;20.20;99.90;;;;;;5057015;28;20025;-73
2022/06/09 13:19:34;;;;;;;8.93;3.10;;;20.20;99.90;;;;;;5050846;28;20100;-73
2022/06/09 13:22:04;;;;;;;11.50;3.85;;;20.20;99.90;;;;;;5051963;28;20029;-73
2022/06/09 13:24:34;;;;;;;7.93;3.85;;;20.20;99.90;;;;;;5053819;28;20021;-74
2022/06/09 13:27:02;;;;;;;8.23;3.97;;;20.20;99.90;;;;;;5051433;28;20032;-73